Time;durP1;ratioP1;P1;durP2;ratioP2;P2;SDS_P1;SDS_P2;PMS_P1;PMS_P2;Temp;Humidity;BMP_temperature;BMP_pressure;BME280_temperature;BME280_humidity;BME280_pressure;Samples;Min_cycle;Max_cycle;Signal;HPM_P1;HPM_P2
2021/12/16 00:08:03;;;;;;;34.15;19.05;;;9.00;99.90;;;;;;5075708;28;20027;-79
2021/12/16 00:10:36;;;;;;;31.33;18.20;;;8.90;99.90;;;;;;5072131;28;20033;-79
2021/12/16 00:34:59;;;;;;;24.95;14.40;;;8.90;99.90;;;;;;5093576;28;20029;-79
2021/12/16 00:37:26;;;;;;;25.58;14.73;;;8.90;99.90;;;;;;5083783;28;20449;-79
2021/12/16 00:39:53;;;;;;;24.08;13.98;;;8.90;99.90;;;;;;5072696;28;20020;-79
2021/12/16 00:45:28;;;;;;;26.10;14.35;;;8.90;99.90;;;;;;5092076;28;20074;-78
2021/12/16 00:47:58;;;;;;;23.00;13.70;;;8.90;99.90;;;;;;5092637;28;20024;-78
2021/12/16 00:55:54;;;;;;;23.63;12.68;;;8.90;99.90;;;;;;5056159;28;20108;-78
2021/12/16 00:58:27;;;;;;;22.30;13.23;;;8.90;99.90;;;;;;5072349;28;20131;-78
2021/12/16 01:01:04;;;;;;;20.55;12.18;;;9.00;99.90;;;;;;5071610;28;20112;-78
2021/12/16 01:03:40;;;;;;;23.35;11.88;;;9.00;99.90;;;;;;5088696;28;20059;-78
2021/12/16 01:08:49;;;;;;;21.27;11.45;;;8.90;99.90;;;;;;5083135;28;20028;-78
2021/12/16 01:49:34;;;;;;;18.85;10.52;;;8.80;99.90;;;;;;5086312;28;20487;-78
2021/12/16 01:52:23;;;;;;;19.27;10.82;;;8.80;99.90;;;;;;5056444;28;20021;-78
2021/12/16 01:57:40;;;;;;;17.70;10.40;;;8.90;99.90;;;;;;5085952;28;20079;-78
2021/12/16 02:00:27;;;;;;;20.13;11.07;;;8.90;99.90;;;;;;5096281;28;20036;-78
2021/12/16 02:02:59;;;;;;;19.88;11.82;;;8.80;99.90;;;;;;5096106;28;20020;-78
2021/12/16 02:05:56;;;;;;;20.70;11.68;;;8.80;99.90;;;;;;5095222;28;20038;-78
2021/12/16 02:08:28;;;;;;;26.83;11.82;;;8.80;99.90;;;;;;5096229;28;20330;-78
2021/12/16 02:28:15;;;;;;;28.88;11.15;;;8.70;99.90;;;;;;5055725;28;20472;-78
2021/12/16 02:38:47;;;;;;;18.95;9.70;;;8.30;99.90;;;;;;5086451;28;20067;-78
2021/12/16 02:41:14;;;;;;;12.88;8.13;;;8.30;99.90;;;;;;5075024;28;20082;-78
2021/12/16 02:48:44;;;;;;;20.77;8.85;;;8.00;99.90;;;;;;5076047;28;20480;-78
2021/12/16 02:51:13;;;;;;;13.82;8.45;;;7.90;99.90;;;;;;5076183;28;20036;-79
2021/12/16 02:53:50;;;;;;;21.02;11.45;;;7.80;99.90;;;;;;5084142;28;20066;-78
2021/12/16 02:56:16;;;;;;;19.48;9.80;;;7.70;99.90;;;;;;5083791;28;20461;-78
2021/12/16 02:58:45;;;;;;;18.55;11.10;;;7.70;99.90;;;;;;5091688;28;20048;-78
2021/12/16 03:01:24;;;;;;;18.60;10.18;;;7.70;99.90;;;;;;5095225;28;20028;-79
2021/12/16 03:03:50;;;;;;;14.23;9.35;;;7.70;99.90;;;;;;5079729;28;20020;-78
2021/12/16 03:06:16;;;;;;;18.98;9.40;;;7.60;99.90;;;;;;5096106;28;20047;-78
2021/12/16 03:08:42;;;;;;;16.48;9.75;;;7.60;99.90;;;;;;5096009;28;20101;-78
2021/12/16 03:11:27;;;;;;;19.10;10.20;;;7.50;99.90;;;;;;5095572;28;20020;-78
2021/12/16 03:16:52;;;;;;;18.35;10.43;;;7.30;99.90;;;;;;5091413;28;20475;-78
2021/12/16 03:21:50;;;;;;;31.40;15.02;;;7.20;99.90;;;;;;5077768;28;20029;-78
2021/12/16 03:24:38;;;;;;;20.90;12.25;;;7.30;99.90;;;;;;5077120;28;20116;-78
2021/12/16 03:27:22;;;;;;;24.58;12.45;;;7.30;99.90;;;;;;5085544;28;20065;-78
2021/12/16 03:35:53;;;;;;;23.90;12.88;;;7.30;99.90;;;;;;5055860;28;20074;-78
2021/12/16 03:37:51;;;;;;;28.42;12.95;;;7.30;99.90;;;;;;5090902;28;20040;-78
2021/12/16 03:40:17;;;;;;;33.58;14.70;;;7.30;99.90;;;;;;5081280;28;20024;-78
2021/12/16 03:43:05;;;;;;;24.60;13.10;;;7.40;99.90;;;;;;5095353;28;20028;-78
2021/12/16 03:48:37;;;;;;;24.67;13.40;;;7.60;99.90;;;;;;5075205;28;20047;-78
2021/12/16 03:51:09;;;;;;;25.05;14.40;;;7.60;99.90;;;;;;5078748;28;20023;-78
2021/12/16 03:53:38;;;;;;;30.10;12.82;;;7.70;99.90;;;;;;5095225;28;20103;-81
2021/12/16 03:56:04;;;;;;;30.73;14.40;;;7.70;99.90;;;;;;5088904;28;20404;-81
2021/12/16 03:58:30;;;;;;;24.65;12.43;;;7.80;99.90;;;;;;5072777;28;20504;-78
2021/12/16 04:01:00;;;;;;;22.30;11.77;;;7.80;99.90;;;;;;5078638;28;20025;-81
2021/12/16 04:03:26;;;;;;;28.85;12.98;;;7.80;99.90;;;;;;5094107;28;20476;-78
2021/12/16 04:05:52;;;;;;;27.65;12.18;;;7.80;99.90;;;;;;5091930;28;20026;-81
2021/12/16 04:08:18;;;;;;;25.98;11.50;;;7.90;99.90;;;;;;5074673;28;20411;-80
2021/12/16 04:11:04;;;;;;;20.88;11.30;;;7.90;99.90;;;;;;5076556;28;20016;-80
2021/12/16 04:13:31;;;;;;;20.83;10.05;;;7.90;99.90;;;;;;5092696;28;20099;-80
2021/12/16 04:15:56;;;;;;;22.27;10.20;;;7.90;99.90;;;;;;5095135;28;20078;-80
2021/12/16 04:18:22;;;;;;;24.10;11.00;;;7.90;99.90;;;;;;5087082;28;20052;-80
2021/12/16 04:20:49;;;;;;;19.55;8.98;;;7.90;99.90;;;;;;5073114;28;20033;-80
2021/12/16 04:23:15;;;;;;;18.05;8.77;;;7.90;99.90;;;;;;5074332;28;20093;-80
2021/12/16 04:25:44;;;;;;;24.60;8.43;;;8.00;99.90;;;;;;5089720;28;20164;-80
2021/12/16 04:28:17;;;;;;;18.77;9.00;;;8.00;99.90;;;;;;5086486;28;20052;-80
2021/12/16 04:30:43;;;;;;;17.67;8.32;;;8.10;99.90;;;;;;5074327;28;20021;-80
2021/12/16 04:33:09;;;;;;;23.77;9.38;;;8.10;99.90;;;;;;5074174;28;20028;-80
2021/12/16 04:35:36;;;;;;;19.58;7.95;;;8.10;99.90;;;;;;5087600;28;20027;-80
2021/12/16 04:38:03;;;;;;;20.85;8.13;;;8.10;99.90;;;;;;5080345;28;20099;-80
2021/12/16 04:40:29;;;;;;;18.45;6.88;;;8.00;99.90;;;;;;5090906;28;20098;-80
2021/12/16 04:43:02;;;;;;;26.33;9.48;;;8.10;99.90;;;;;;5074079;28;20024;-80
2021/12/16 04:45:28;;;;;;;14.68;7.00;;;8.10;99.90;;;;;;5073907;28;20032;-80
2021/12/16 04:47:55;;;;;;;14.70;7.53;;;8.10;99.90;;;;;;5073938;28;20492;-80
2021/12/16 04:50:20;;;;;;;12.25;6.13;;;8.10;99.90;;;;;;5073756;28;20457;-80
2021/12/16 04:52:47;;;;;;;16.70;5.95;;;8.20;99.90;;;;;;5073385;28;20055;-80
2021/12/16 04:55:14;;;;;;;11.05;5.55;;;8.20;99.90;;;;;;5072517;28;20495;-80
2021/12/16 04:57:41;;;;;;;16.70;6.53;;;8.20;99.90;;;;;;5072317;28;20401;-80
2021/12/16 05:00:10;;;;;;;12.32;6.05;;;8.20;99.90;;;;;;5073621;28;20085;-80
2021/12/16 05:02:36;;;;;;;9.20;5.20;;;8.30;99.90;;;;;;5086899;28;20021;-80
2021/12/16 05:05:03;;;;;;;11.77;5.32;;;8.20;99.90;;;;;;5064821;28;20028;-80
2021/12/16 05:07:28;;;;;;;15.25;5.97;;;8.20;99.90;;;;;;5073137;28;20077;-80
2021/12/16 05:10:04;;;;;;;11.02;5.63;;;8.20;99.90;;;;;;5074368;28;20103;-80
2021/12/16 05:12:36;;;;;;;8.68;5.25;;;8.10;99.90;;;;;;5053520;28;20130;-80
2021/12/16 05:15:13;;;;;;;9.02;5.57;;;8.10;99.90;;;;;;5072929;28;20056;-80
2021/12/16 05:17:45;;;;;;;10.85;5.45;;;8.10;99.90;;;;;;5073719;28;20373;-80
2021/12/16 05:20:23;;;;;;;12.18;5.90;;;8.10;99.90;;;;;;5072218;28;20125;-80
2021/12/16 05:25:51;;;;;;;12.82;6.47;;;8.20;99.90;;;;;;5075315;28;20054;-80
2021/12/16 05:28:19;;;;;;;11.52;6.35;;;8.20;99.90;;;;;;5085092;28;20492;-80
2021/12/16 05:30:46;;;;;;;12.07;6.25;;;8.30;99.90;;;;;;5076850;28;20009;-80
2021/12/16 05:33:12;;;;;;;15.10;6.60;;;8.30;99.90;;;;;;5071702;28;20025;-80
2021/12/16 05:35:38;;;;;;;15.30;6.57;;;8.30;99.90;;;;;;5073049;28;20499;-80
2021/12/16 05:38:05;;;;;;;14.50;6.63;;;8.30;99.90;;;;;;5071886;28;20036;-80
2021/12/16 05:40:32;;;;;;;15.48;7.18;;;8.40;99.90;;;;;;5072619;28;20480;-80
2021/12/16 05:43:02;;;;;;;17.25;6.35;;;8.50;99.90;;;;;;5073109;28;20162;-80
2021/12/16 05:45:30;;;;;;;13.70;5.90;;;8.50;99.90;;;;;;5073148;28;20103;-80
2021/12/16 05:47:59;;;;;;;13.57;5.68;;;8.50;99.90;;;;;;5073153;28;20023;-80
2021/12/16 05:50:27;;;;;;;17.05;6.05;;;8.50;99.90;;;;;;5073184;28;20073;-80
2021/12/16 05:52:53;;;;;;;19.17;5.47;;;8.60;99.90;;;;;;5073261;28;20024;-80
2021/12/16 05:55:20;;;;;;;24.33;8.65;;;8.70;99.90;;;;;;5072848;28;20025;-80
2021/12/16 05:57:48;;;;;;;13.15;5.40;;;8.60;99.90;;;;;;5072912;28;20037;-80
2021/12/16 06:00:20;;;;;;;22.92;6.55;;;8.70;99.90;;;;;;5071729;28;20027;-80
2021/12/16 06:02:46;;;;;;;10.02;5.00;;;8.60;99.90;;;;;;5073148;28;20051;-80
2021/12/16 06:05:12;;;;;;;7.88;4.53;;;8.60;99.90;;;;;;5073052;28;20021;-80
2021/12/16 06:07:40;;;;;;;13.02;5.82;;;8.60;99.90;;;;;;5072902;28;20075;-80
2021/12/16 06:10:16;;;;;;;15.00;6.72;;;8.60;99.90;;;;;;5072691;28;20032;-80
2021/12/16 06:12:44;;;;;;;11.52;5.30;;;8.70;99.90;;;;;;5073201;28;20029;-80
2021/12/16 06:15:36;;;;;;;20.02;6.93;;;8.70;99.90;;;;;;5072683;28;20033;-80
2021/12/16 06:26:43;;;;;;;12.73;5.60;;;8.70;99.90;;;;;;5076722;28;20032;-80
2021/12/16 06:29:08;;;;;;;14.13;5.78;;;8.70;99.90;;;;;;5076376;28;20027;-80
2021/12/16 06:31:36;;;;;;;11.10;4.90;;;8.80;99.90;;;;;;5076291;28;20100;-80
2021/12/16 06:34:02;;;;;;;16.08;5.97;;;8.70;99.90;;;;;;5076267;28;20111;-80
2021/12/16 06:36:28;;;;;;;12.80;6.07;;;8.70;99.90;;;;;;5076363;28;20068;-80
2021/12/16 06:38:53;;;;;;;15.52;5.70;;;8.80;99.90;;;;;;5074951;28;20056;-80
2021/12/16 06:41:21;;;;;;;17.25;5.95;;;8.80;99.90;;;;;;5076250;28;20024;-80
2021/12/16 06:43:51;;;;;;;18.95;6.65;;;8.80;99.90;;;;;;5076279;28;20103;-80
2021/12/16 06:46:20;;;;;;;14.25;6.57;;;8.80;99.90;;;;;;5076252;28;20021;-80
2021/12/16 06:48:54;;;;;;;20.85;6.63;;;8.80;99.90;;;;;;5075068;28;20365;-80
2021/12/16 06:51:33;;;;;;;20.50;6.93;;;8.80;99.90;;;;;;5075977;28;20028;-80
2021/12/16 06:54:10;;;;;;;26.95;7.97;;;8.80;99.90;;;;;;5075873;28;20055;-80
2021/12/16 06:56:57;;;;;;;21.63;8.35;;;8.80;99.90;;;;;;5082873;28;20141;-80
2021/12/16 06:59:29;;;;;;;17.55;7.88;;;8.90;99.90;;;;;;5074872;28;20043;-79
2021/12/16 07:04:34;;;;;;;21.17;7.60;;;8.80;99.90;;;;;;5071307;28;20024;-79
2021/12/16 07:07:01;;;;;;;16.92;8.05;;;8.90;99.90;;;;;;5073209;28;20024;-79
2021/12/16 07:09:26;;;;;;;26.15;7.40;;;8.90;99.90;;;;;;5074231;28;20021;-79
2021/12/16 07:11:58;;;;;;;18.55;8.57;;;8.90;99.90;;;;;;5054977;28;20398;-79
2021/12/16 07:14:35;;;;;;;21.42;7.57;;;8.90;99.90;;;;;;5085349;28;20032;-79
2021/12/16 07:17:04;;;;;;;25.23;8.82;;;8.90;99.90;;;;;;5072263;28;20020;-79
2021/12/16 07:19:29;;;;;;;22.50;8.73;;;8.90;99.90;;;;;;5074631;28;20024;-79
2021/12/16 07:21:55;;;;;;;19.35;9.35;;;8.80;99.90;;;;;;5054610;28;20393;-79
2021/12/16 07:24:22;;;;;;;18.02;8.75;;;8.80;99.90;;;;;;5054659;28;20033;-79
2021/12/16 07:26:48;;;;;;;25.75;10.48;;;8.70;99.90;;;;;;5056197;28;20035;-79
2021/12/16 07:29:15;;;;;;;16.30;8.70;;;8.70;99.90;;;;;;5088340;28;20483;-78
2021/12/16 07:31:41;;;;;;;23.08;9.68;;;8.70;99.90;;;;;;5075318;28;20100;-79
2021/12/16 07:34:10;;;;;;;17.55;8.65;;;8.60;99.90;;;;;;5077028;28;20103;-78
2021/12/16 07:36:38;;;;;;;30.10;11.68;;;8.60;99.90;;;;;;5054387;28;20033;-79
2021/12/16 07:39:07;;;;;;;19.77;11.13;;;8.50;99.90;;;;;;5093871;28;20492;-79
2021/12/16 07:41:34;;;;;;;20.85;10.52;;;8.50;99.90;;;;;;5074274;28;20032;-79
2021/12/16 07:44:10;;;;;;;31.05;11.80;;;8.40;99.90;;;;;;5073431;28;20093;-78
2021/12/16 07:46:36;;;;;;;;;;;8.40;99.90;;;;;;5067658;28;20036;-79
2021/12/16 07:49:04;;;;;;;32.67;12.85;;;8.40;99.90;;;;;;5074342;28;19995;-79
2021/12/16 07:51:30;;;;;;;24.58;11.82;;;8.50;99.90;;;;;;5072967;28;20039;-79
2021/12/16 07:53:56;;;;;;;23.42;11.68;;;8.50;99.90;;;;;;5073889;28;20025;-79
2021/12/16 07:56:21;;;;;;;26.92;11.38;;;8.50;99.90;;;;;;5073908;28;20108;-79
2021/12/16 07:58:47;;;;;;;22.58;10.90;;;8.50;99.90;;;;;;5072225;28;20054;-79
2021/12/16 08:01:13;;;;;;;19.77;10.05;;;8.50;99.90;;;;;;5073611;28;20025;-79
2021/12/16 08:03:39;;;;;;;20.38;9.73;;;8.50;99.90;;;;;;5073381;28;20499;-79
2021/12/16 08:06:10;;;;;;;19.60;9.75;;;8.60;99.90;;;;;;5073677;28;20376;-79
2021/12/16 08:08:36;;;;;;;15.63;9.00;;;8.60;99.90;;;;;;5071897;28;20052;-78
2021/12/16 08:11:03;;;;;;;16.58;8.85;;;8.60;99.90;;;;;;5073450;28;20020;-79
2021/12/16 08:13:29;;;;;;;18.20;9.23;;;8.70;99.90;;;;;;5073026;28;20059;-78
2021/12/16 08:15:56;;;;;;;19.67;8.52;;;8.70;99.90;;;;;;5073614;28;20052;-78
2021/12/16 08:18:22;;;;;;;15.25;8.45;;;8.80;99.90;;;;;;5073044;28;20434;-78
2021/12/16 08:20:47;;;;;;;17.30;8.55;;;8.80;99.90;;;;;;5073359;28;20115;-78
2021/12/16 08:23:13;;;;;;;19.55;9.25;;;8.80;99.90;;;;;;5072770;28;20035;-78
2021/12/16 08:25:39;;;;;;;18.55;9.45;;;8.80;99.90;;;;;;5072991;28;20028;-78
2021/12/16 08:28:06;;;;;;;18.58;10.32;;;8.90;99.90;;;;;;5073295;28;20357;-78
2021/12/16 08:30:37;;;;;;;20.73;9.65;;;8.90;99.90;;;;;;5077939;28;20016;-78
2021/12/16 08:33:07;;;;;;;19.13;8.45;;;8.90;99.90;;;;;;5055897;28;20486;-79
2021/12/16 08:35:34;;;;;;;14.57;9.20;;;8.90;99.90;;;;;;5068180;28;20104;-79
2021/12/16 08:38:00;;;;;;;15.05;8.93;;;8.90;99.90;;;;;;5072719;28;20036;-79
2021/12/16 08:40:28;;;;;;;20.67;9.43;;;8.90;99.90;;;;;;5077603;28;20021;-79
2021/12/16 08:42:53;;;;;;;13.82;7.97;;;8.90;99.90;;;;;;5080715;28;20016;-78
2021/12/16 08:45:25;;;;;;;12.98;7.93;;;8.90;99.90;;;;;;5076708;28;20112;-79
2021/12/16 08:47:51;;;;;;;12.38;7.95;;;8.90;99.90;;;;;;5073003;28;20017;-79
2021/12/16 08:50:21;;;;;;;18.33;8.85;;;8.90;99.90;;;;;;5093269;28;20035;-79
2021/12/16 08:52:47;;;;;;;15.15;8.52;;;8.90;99.90;;;;;;5082786;28;20020;-79
2021/12/16 08:55:15;;;;;;;19.92;9.77;;;8.90;99.90;;;;;;5073072;28;20406;-78
2021/12/16 08:57:41;;;;;;;14.82;9.43;;;8.90;99.90;;;;;;5072923;28;20641;-79
2021/12/16 09:00:12;;;;;;;19.10;9.23;;;8.90;99.90;;;;;;5090890;28;20439;-79
2021/12/16 09:02:37;;;;;;;20.15;10.00;;;9.00;99.90;;;;;;5084367;28;20036;-79
2021/12/16 09:05:04;;;;;;;20.45;10.45;;;8.90;99.90;;;;;;5071755;28;20036;-78
2021/12/16 09:07:30;;;;;;;21.45;10.50;;;9.00;99.90;;;;;;5072988;28;20472;-79
2021/12/16 09:09:57;;;;;;;22.77;10.13;;;9.00;99.90;;;;;;5072506;28;20017;-79
2021/12/16 09:14:59;;;;;;;12.82;8.20;;;9.10;99.90;;;;;;5082948;28;20052;-79
2021/12/16 09:17:27;;;;;;;13.75;8.30;;;9.10;99.90;;;;;;5071295;28;20036;-79
2021/12/16 09:19:54;;;;;;;15.93;8.15;;;9.10;99.90;;;;;;5071317;28;20055;-78
2021/12/16 09:22:24;;;;;;;10.40;6.68;;;9.20;99.90;;;;;;5084611;28;20032;-79
2021/12/16 09:24:52;;;;;;;13.88;7.68;;;9.20;99.90;;;;;;5075187;28;20499;-79
2021/12/16 09:27:19;;;;;;;12.63;7.35;;;9.20;99.90;;;;;;5092055;28;20464;-79
2021/12/16 09:29:46;;;;;;;11.27;7.00;;;9.20;99.90;;;;;;5091438;28;20028;-79
2021/12/16 09:32:15;;;;;;;11.93;6.55;;;9.20;99.90;;;;;;5076415;28;20028;-79
2021/12/16 09:34:43;;;;;;;10.00;5.75;;;9.20;99.90;;;;;;5091856;28;20024;-79
2021/12/16 09:37:12;;;;;;;9.27;6.03;;;9.20;99.90;;;;;;5075323;28;20036;-79
2021/12/16 09:39:38;;;;;;;8.63;5.30;;;9.30;99.90;;;;;;5089174;28;20552;-79
2021/12/16 09:42:06;;;;;;;11.48;6.25;;;9.40;99.90;;;;;;5091960;28;20032;-79
2021/12/16 09:44:32;;;;;;;10.38;5.95;;;9.40;99.90;;;;;;5092496;28;20021;-79
2021/12/16 09:47:00;;;;;;;8.63;6.07;;;9.40;99.90;;;;;;5092756;28;20035;-79
2021/12/16 09:49:26;;;;;;;7.45;4.93;;;9.40;99.90;;;;;;5092488;28;20024;-79
2021/12/16 09:51:55;;;;;;;7.45;4.00;;;9.50;99.90;;;;;;5092047;28;20062;-79
2021/12/16 09:54:25;;;;;;;7.72;4.45;;;9.60;99.90;;;;;;5093091;28;20024;-79
2021/12/16 09:56:52;;;;;;;6.78;3.95;;;9.60;99.90;;;;;;5094956;28;20028;-79
2021/12/16 09:59:20;;;;;;;8.63;3.75;;;9.60;99.90;;;;;;5096369;28;20399;-79
2021/12/16 10:01:50;;;;;;;8.60;4.32;;;9.60;99.90;;;;;;5090780;28;20381;-79
2021/12/16 10:04:23;;;;;;;10.32;5.03;;;9.60;99.90;;;;;;5074934;28;20031;-79
2021/12/16 10:06:57;;;;;;;11.73;4.57;;;9.60;99.90;;;;;;5075958;28;20024;-79
2021/12/16 10:09:22;;;;;;;9.10;4.13;;;9.60;99.90;;;;;;5075714;28;20020;-79
2021/12/16 10:11:52;;;;;;;7.38;4.70;;;9.60;99.90;;;;;;5075916;28;20074;-79
2021/12/16 10:14:32;;;;;;;11.32;5.35;;;9.60;99.90;;;;;;5075723;28;20401;-77
2021/12/16 10:19:44;;;;;;;11.80;5.40;;;9.60;99.90;;;;;;5096400;28;20053;-78
2021/12/16 10:22:17;;;;;;;16.52;6.60;;;9.70;99.90;;;;;;5079726;28;20050;-77
2021/12/16 10:24:43;;;;;;;12.00;7.28;;;9.60;99.90;;;;;;5077544;28;20020;-78
2021/12/16 10:27:17;;;;;;;14.02;6.85;;;9.60;99.90;;;;;;5091037;28;20047;-78
2021/12/16 10:29:50;;;;;;;15.73;9.10;;;9.70;99.90;;;;;;5074560;28;20039;-77
2021/12/16 10:32:45;;;;;;;21.63;9.00;;;9.60;99.90;;;;;;5079289;28;20024;-78
2021/12/16 10:35:12;;;;;;;21.33;11.43;;;9.60;99.90;;;;;;5082230;28;20400;-77
2021/12/16 10:37:51;;;;;;;17.42;8.70;;;9.60;99.90;;;;;;5076562;28;20366;-78
2021/12/16 10:40:26;;;;;;;28.42;13.77;;;9.50;99.90;;;;;;5080193;28;20039;-78
2021/12/16 10:42:55;;;;;;;22.95;12.27;;;9.50;99.90;;;;;;5078888;28;20028;-78
2021/12/16 10:45:33;;;;;;;25.98;13.57;;;9.50;99.90;;;;;;5085116;28;20032;-78
2021/12/16 10:48:19;;;;;;;32.55;13.52;;;9.50;99.90;;;;;;5075719;28;20029;-77
2021/12/16 10:50:49;;;;;;;;;;;9.50;99.90;;;;;;5087144;28;20021;-77
2021/12/16 10:53:15;;;;;;;29.55;14.75;;;9.40;99.90;;;;;;5073850;28;19905;-77
2021/12/16 10:56:01;;;;;;;28.67;15.90;;;9.40;99.90;;;;;;5085149;28;20099;-77
2021/12/16 10:59:00;;;;;;;38.65;18.13;;;9.40;99.90;;;;;;5091409;28;20036;-77
2021/12/16 11:01:51;;;;;;;29.05;16.23;;;9.30;99.90;;;;;;5078155;28;20032;-77
2021/12/16 11:04:30;;;;;;;34.03;18.20;;;9.30;99.90;;;;;;5062419;28;20082;-77
2021/12/16 11:07:08;;;;;;;31.25;16.48;;;9.30;99.90;;;;;;5075750;28;20031;-77
2021/12/16 11:09:49;;;;;;;37.17;18.33;;;9.30;99.90;;;;;;5082078;28;20108;-78
2021/12/16 11:12:14;;;;;;;28.90;17.42;;;9.30;99.90;;;;;;5076916;28;20031;-77
2021/12/16 11:14:44;;;;;;;35.63;19.00;;;9.30;99.90;;;;;;5086628;28;20024;-77
2021/12/16 11:17:12;;;;;;;34.58;18.98;;;9.20;99.90;;;;;;5078304;28;20094;-77
2021/12/16 11:19:46;;;;;;;43.05;20.83;;;9.20;99.90;;;;;;5074772;28;20028;-77
2021/12/16 11:22:16;;;;;;;37.25;19.65;;;9.20;99.90;;;;;;5086567;28;20032;-77
2021/12/16 11:24:41;;;;;;;44.42;20.45;;;9.10;99.90;;;;;;5075233;28;20099;-77
2021/12/16 11:27:21;;;;;;;38.75;22.63;;;9.10;99.90;;;;;;5082960;28;20048;-77
2021/12/16 11:29:46;;;;;;;42.25;22.08;;;9.00;99.90;;;;;;5076889;28;20032;-77
2021/12/16 11:32:50;;;;;;;35.75;20.10;;;9.00;99.90;;;;;;5083392;28;20028;-77
2021/12/16 11:35:30;;;;;;;35.17;20.00;;;9.10;99.90;;;;;;5071447;28;20073;-77
2021/12/16 11:38:01;;;;;;;37.35;19.27;;;9.00;99.90;;;;;;5073118;28;20177;-77
2021/12/16 11:40:26;;;;;;;30.60;18.17;;;9.00;99.90;;;;;;5075591;28;20024;-77
2021/12/16 11:43:05;;;;;;;32.10;19.88;;;9.10;99.90;;;;;;5086395;28;20034;-77
2021/12/16 11:45:39;;;;;;;33.15;18.58;;;9.10;99.90;;;;;;5070251;28;20021;-77
2021/12/16 11:48:06;;;;;;;33.17;19.23;;;9.00;99.90;;;;;;5081676;28;20028;-77
2021/12/16 11:50:37;;;;;;;33.67;18.52;;;9.00;99.90;;;;;;5081901;28;20016;-78
2021/12/16 11:53:04;;;;;;;32.60;18.85;;;9.00;99.90;;;;;;5079797;28;20456;-78
2021/12/16 11:55:34;;;;;;;34.67;19.02;;;9.00;99.90;;;;;;5076273;28;20032;-77
2021/12/16 11:58:03;;;;;;;37.85;19.92;;;9.00;99.90;;;;;;5073884;28;20048;-78
2021/12/16 12:00:33;;;;;;;35.10;20.38;;;9.00;99.90;;;;;;5073482;28;20477;-77
2021/12/16 12:03:09;;;;;;;41.15;20.30;;;8.90;99.90;;;;;;5073884;28;20024;-78
2021/12/16 12:05:50;;;;;;;34.42;21.00;;;9.00;99.90;;;;;;5080277;28;20107;-78
2021/12/16 12:08:23;;;;;;;39.17;22.63;;;9.00;99.90;;;;;;5073631;28;20127;-77
2021/12/16 12:11:06;;;;;;;39.42;21.65;;;8.90;99.90;;;;;;5089434;28;20531;-78
2021/12/16 12:13:37;;;;;;;37.15;21.65;;;8.90;99.90;;;;;;5056596;28;20461;-78
2021/12/16 12:16:08;;;;;;;36.95;21.73;;;8.90;99.90;;;;;;5072996;28;20121;-77
2021/12/16 12:18:41;;;;;;;43.55;23.85;;;8.80;99.90;;;;;;5065871;28;20052;-77
2021/12/16 12:21:16;;;;;;;44.65;24.58;;;8.80;99.90;;;;;;5065179;28;20602;-78
2021/12/16 12:23:42;;;;;;;45.95;25.02;;;8.80;99.90;;;;;;5072685;28;20039;-77
2021/12/16 12:26:15;;;;;;;45.53;25.00;;;8.90;99.90;;;;;;5073216;28;20472;-77
2021/12/16 12:28:41;;;;;;;41.70;24.23;;;8.90;99.90;;;;;;5073139;28;20495;-77
2021/12/16 12:31:08;;;;;;;39.60;23.10;;;8.80;99.90;;;;;;5072912;28;20029;-77
2021/12/16 12:33:34;;;;;;;46.45;23.42;;;8.80;99.90;;;;;;5073234;28;20021;-77
2021/12/16 12:36:01;;;;;;;35.35;21.63;;;8.80;99.90;;;;;;5072861;28;20058;-77
2021/12/16 12:38:27;;;;;;;38.17;22.38;;;8.90;99.90;;;;;;5072275;28;20376;-77
2021/12/16 12:40:53;;;;;;;37.75;21.40;;;8.90;99.90;;;;;;5076699;28;20028;-77
2021/12/16 12:43:19;;;;;;;42.00;24.13;;;8.90;99.90;;;;;;5084890;28;20632;-77
2021/12/16 12:45:45;;;;;;;40.20;21.67;;;8.90;99.90;;;;;;5079672;28;20111;-76
2021/12/16 12:48:17;;;;;;;37.28;20.67;;;8.90;99.90;;;;;;5075160;28;20503;-77
2021/12/16 12:50:47;;;;;;;39.63;21.85;;;8.90;99.90;;;;;;5072971;28;20028;-77
2021/12/16 12:53:25;;;;;;;33.10;19.60;;;8.90;99.90;;;;;;5075656;28;20426;-77
2021/12/16 12:55:56;;;;;;;32.67;19.23;;;8.80;99.90;;;;;;5064691;28;20056;-77
2021/12/16 12:58:25;;;;;;;32.75;19.23;;;8.80;99.90;;;;;;5077371;28;20051;-77
2021/12/16 13:01:05;;;;;;;30.40;17.80;;;8.90;99.90;;;;;;5082772;28;20124;-76
2021/12/16 13:03:36;;;;;;;27.65;16.55;;;8.90;99.90;;;;;;5076360;28;20139;-77
2021/12/16 13:06:04;;;;;;;30.52;15.68;;;8.90;99.90;;;;;;5071982;28;20028;-77
2021/12/16 13:08:36;;;;;;;31.13;17.67;;;8.90;99.90;;;;;;5075622;28;20475;-77
2021/12/16 13:11:36;;;;;;;28.83;15.93;;;8.90;99.90;;;;;;5080644;28;20021;-77
2021/12/16 13:14:29;;;;;;;28.95;16.02;;;8.90;99.90;;;;;;5038900;28;20471;-77
2021/12/16 13:28:39;;;;;;;26.67;15.57;;;8.80;99.90;;;;;;5062772;28;20032;-77
2021/12/16 13:31:34;;;;;;;28.80;15.77;;;8.80;99.90;;;;;;5075738;28;20024;-77
2021/12/16 13:34:01;;;;;;;29.67;15.03;;;8.80;99.90;;;;;;5088344;28;20032;-76
2021/12/16 13:36:46;;;;;;;31.23;17.50;;;8.80;99.90;;;;;;5079806;28;20024;-76
2021/12/16 13:39:18;;;;;;;31.58;17.77;;;8.80;99.90;;;;;;5091009;28;20384;-77
2021/12/16 13:42:00;;;;;;;28.42;16.75;;;8.80;99.90;;;;;;5077226;28;20119;-76
2021/12/16 13:44:42;;;;;;;30.65;17.90;;;8.80;99.90;;;;;;5081430;28;20024;-77
2021/12/16 13:47:24;;;;;;;29.33;17.65;;;8.80;99.90;;;;;;5083412;28;20029;-77
2021/12/16 14:01:52;;;;;;;33.30;19.90;;;8.80;99.90;;;;;;5039259;28;20069;-77
2021/12/16 14:04:51;;;;;;;30.63;17.98;;;8.70;99.90;;;;;;5052396;28;20025;-76
2021/12/16 14:10:16;;;;;;;35.20;19.45;;;8.80;99.90;;;;;;5071419;28;20025;-77
2021/12/16 14:25:30;;;;;;;32.72;18.63;;;8.70;99.90;;;;;;5080300;28;20048;-77
2021/12/16 14:45:14;;;;;;;34.80;20.13;;;8.70;99.90;;;;;;5091229;28;20092;-77
2021/12/16 14:49:49;;;;;;;37.17;22.75;;;8.70;99.90;;;;;;5081850;28;20383;-76
2021/12/16 14:52:19;;;;;;;39.47;23.42;;;8.70;99.90;;;;;;5081275;28;20060;-76
2021/12/16 14:54:55;;;;;;;42.28;22.58;;;8.60;99.90;;;;;;5076002;28;20028;-76
2021/12/16 14:57:25;;;;;;;;;;;8.60;99.90;;;;;;5072778;28;20048;-76
2021/12/16 14:59:51;;;;;;;36.50;22.50;;;8.60;99.90;;;;;;5083209;28;19908;-77
2021/12/16 15:02:19;;;;;;;39.90;23.10;;;8.60;99.90;;;;;;5091631;28;20028;-77
2021/12/16 15:04:45;;;;;;;46.08;27.38;;;8.60;99.90;;;;;;5075213;28;20097;-77
2021/12/16 15:07:12;;;;;;;41.78;25.67;;;8.60;99.90;;;;;;5080010;28;20096;-77
2021/12/16 15:09:40;;;;;;;44.03;25.13;;;8.50;99.90;;;;;;5062267;28;20035;-77
2021/12/16 15:12:45;;;;;;;41.70;25.90;;;8.50;99.90;;;;;;5087425;28;20026;-77
2021/12/16 15:42:51;;;;;;;28.52;19.27;;;8.50;99.90;;;;;;5073692;28;20021;-76
2021/12/16 15:45:24;;;;;;;33.83;19.63;;;8.50;99.90;;;;;;5083392;28;20038;-77
2021/12/16 15:47:55;;;;;;;36.42;20.38;;;8.60;99.90;;;;;;5092765;28;20020;-76
2021/12/16 15:50:35;;;;;;;32.67;19.30;;;8.60;99.90;;;;;;5074618;28;20037;-77
2021/12/16 15:53:06;;;;;;;29.40;17.45;;;8.50;99.90;;;;;;5079805;28;20054;-77
2021/12/16 15:55:39;;;;;;;34.47;20.13;;;8.50;99.90;;;;;;5077363;28;20048;-76
2021/12/16 15:58:12;;;;;;;33.15;20.02;;;8.50;99.90;;;;;;5076231;28;20523;-76
2021/12/16 16:00:42;;;;;;;29.08;17.48;;;8.50;99.90;;;;;;5072750;28;20050;-76
2021/12/16 16:03:10;;;;;;;35.03;20.83;;;8.50;99.90;;;;;;5080607;28;20119;-77
2021/12/16 16:05:39;;;;;;;40.38;23.65;;;8.50;99.90;;;;;;5085222;28;20021;-77
2021/12/16 16:08:09;;;;;;;35.55;20.40;;;8.50;99.90;;;;;;5072220;28;20465;-76
2021/12/16 16:10:37;;;;;;;29.30;19.20;;;8.50;99.90;;;;;;5085175;28;20036;-77
2021/12/16 16:13:09;;;;;;;33.13;20.42;;;8.40;99.90;;;;;;5091651;28;20081;-76
2021/12/16 16:15:35;;;;;;;32.15;20.50;;;8.40;99.90;;;;;;5086176;28;20377;-76
2021/12/16 16:18:13;;;;;;;32.08;20.65;;;8.40;99.90;;;;;;5073489;28;20036;-76
2021/12/16 16:20:44;;;;;;;35.15;20.83;;;8.50;99.90;;;;;;5073478;28;20051;-76
2021/12/16 16:23:15;;;;;;;37.92;20.40;;;8.50;99.90;;;;;;5075742;28;20028;-76
2021/12/16 16:25:42;;;;;;;38.35;20.73;;;8.40;99.90;;;;;;5085539;28;20465;-76
2021/12/16 16:28:11;;;;;;;36.33;19.92;;;8.40;99.90;;;;;;5071610;28;20094;-77
2021/12/16 16:30:39;;;;;;;36.22;19.67;;;8.40;99.90;;;;;;5075179;28;20411;-76
2021/12/16 16:33:15;;;;;;;36.65;20.77;;;8.40;99.90;;;;;;5076552;28;20020;-76
2021/12/16 16:35:55;;;;;;;34.30;18.33;;;8.40;99.90;;;;;;5082919;28;20035;-76
2021/12/16 16:38:38;;;;;;;39.63;20.20;;;8.30;99.90;;;;;;5058918;28;20048;-77
2021/12/16 16:41:09;;;;;;;35.08;19.33;;;8.30;99.90;;;;;;5073093;28;20020;-77
2021/12/16 16:43:52;;;;;;;38.25;20.58;;;8.40;99.90;;;;;;5072304;28;20063;-76
2021/12/16 16:46:44;;;;;;;39.90;20.80;;;8.40;99.90;;;;;;5085161;28;20027;-77
2021/12/16 16:49:24;;;;;;;37.97;20.33;;;8.40;99.90;;;;;;5063340;28;20038;-76
2021/12/16 16:51:50;;;;;;;43.92;22.38;;;8.30;99.90;;;;;;5071305;28;20025;-76
2021/12/16 16:54:33;;;;;;;40.35;21.50;;;8.40;99.90;;;;;;5083013;28;20476;-76